LFGJ/DLE METAR and TAF weather

Enter ICAO airport designator
Station Type Date Time Source
LFGJ METAR 2022/06/29 01:30 UTC NOAA

LFGJ 290130Z AUTO 06002KT CAVOK 16/15 Q1015


Station Type Date Time Source
LFGJ Decoded METAR 2022/06/29 01:30 UTC NOAA

Dole Tavaux, France (LFGJ) 47-02-34N 005-26-06E
Jun 28, 2022 - 09:30 PM EDT / 2022.06.29 0130 UTC
Wind: from the ENE (060 degrees) at 2 MPH (2 KT):0
Visibility: greater than 7 mile(s):0
Temperature: 60 F (16 C)
Dew Point: 59 F (15 C)
Relative Humidity: 93%
Pressure (altimeter): 29.97 in. Hg (1015 hPa)
ob: LFGJ 290130Z AUTO 06002KT CAVOK 16/15 Q1015
cycle: 1

Station Type Date Time Source
LFGJ TAF 2020/06/22 09:21 UTC NOAA

TAF LFGJ 220800Z 2209/2221 01008KT 9999 FEW035 BKN053
BECMG 2212/2215 CAVOK

Example: see airport list